createdAt,value
2022-11-29T00:01:42.164Z,103.13
2022-11-29T00:04:10.321Z,115.30
2022-11-29T00:06:38.817Z,103.60
2022-11-29T00:09:13.301Z,102.20
2022-11-29T00:12:06.000Z,113.50
2022-11-29T00:14:33.560Z,99.07
2022-11-29T00:17:02.547Z,117.87
2022-11-29T00:19:37.070Z,140.97
2022-11-29T00:22:05.248Z,136.50
2022-11-29T00:24:33.267Z,133.20
2022-11-29T00:27:01.689Z,131.73
2022-11-29T00:29:30.749Z,142.93
2022-11-29T00:31:59.092Z,135.87
2022-11-29T00:34:26.723Z,157.37
2022-11-29T00:36:54.275Z,155.30
2022-11-29T00:39:21.911Z,174.10
2022-11-29T00:41:49.407Z,143.57
2022-11-29T00:44:20.514Z,193.93
2022-11-29T00:46:49.415Z,153.53
2022-11-29T00:49:17.928Z,167.10
2022-11-29T00:51:47.091Z,198.70
2022-11-29T00:54:15.654Z,163.10
2022-11-29T00:56:43.768Z,160.33
2022-11-29T00:59:11.314Z,172.63
2022-11-29T01:01:39.128Z,166.87
2022-11-29T01:04:07.143Z,148.23
2022-11-29T01:06:34.760Z,188.17
2022-11-29T01:09:02.422Z,177.20
2022-11-29T01:11:30.691Z,169.40
2022-11-29T01:14:03.286Z,152.20
2022-11-29T01:16:33.024Z,185.13
2022-11-29T01:19:01.069Z,109.60
2022-11-29T01:21:29.511Z,169.53
2022-11-29T01:23:57.679Z,174.77
2022-11-29T01:26:30.372Z,133.30
2022-11-29T01:29:00.112Z,158.53
2022-11-29T01:31:37.630Z,143.03
2022-11-29T01:34:07.711Z,151.63
2022-11-29T01:36:36.044Z,146.40
2022-11-29T01:39:07.164Z,165.10
2022-11-29T01:41:37.948Z,172.23
2022-11-29T01:44:25.709Z,166.53
2022-11-29T01:46:56.989Z,164.10
2022-11-29T01:49:43.033Z,170.80
2022-11-29T01:52:28.255Z,167.80
2022-11-29T01:55:04.192Z,156.27
2022-11-29T01:57:35.292Z,172.50
2022-11-29T02:00:19.979Z,229.10
2022-11-29T02:02:55.727Z,152.03
2022-11-29T02:05:26.727Z,199.33
2022-11-29T02:07:59.297Z,190.97
2022-11-29T02:11:13.313Z,212.93
2022-11-29T02:14:12.991Z,196.73
2022-11-29T02:17:20.457Z,177.20
2022-11-29T02:20:30.683Z,138.53
2022-11-29T02:23:58.287Z,145.97
2022-11-29T02:27:16.952Z,146.20
2022-11-29T02:30:23.680Z,110.83
2022-11-29T02:33:35.520Z,144.27
2022-11-29T02:37:11.831Z,110.00
2022-11-29T02:40:31.937Z,127.83
2022-11-29T02:43:30.149Z,118.73
2022-11-29T02:46:20.721Z,109.33
2022-11-29T02:49:22.632Z,106.90
2022-11-29T02:52:07.656Z,102.07
2022-11-29T02:55:15.353Z,96.17
2022-11-29T02:58:23.576Z,99.33
2022-11-29T03:01:57.206Z,91.13
2022-11-29T03:04:36.441Z,91.53
2022-11-29T03:07:48.923Z,99.93
2022-11-29T03:10:47.036Z,86.33
2022-11-29T03:14:12.967Z,85.13
2022-11-29T03:17:03.373Z,74.30
2022-11-29T03:20:06.267Z,91.43
2022-11-29T03:23:48.464Z,95.80
2022-11-29T03:26:41.501Z,82.73
2022-11-29T03:29:58.087Z,81.43
2022-11-29T03:33:08.486Z,87.50
2022-11-29T03:36:14.945Z,90.40
2022-11-29T03:38:48.535Z,84.90
2022-11-29T03:41:35.516Z,87.60
2022-11-29T03:45:24.575Z,79.93
2022-11-29T03:48:35.849Z,93.50
2022-11-29T03:52:15.391Z,69.43
2022-11-29T03:55:19.177Z,69.80
2022-11-29T03:58:39.470Z,98.27
2022-11-29T04:02:20.385Z,79.23
2022-11-29T04:05:45.474Z,70.13
2022-11-29T04:09:36.651Z,62.87
2022-11-29T04:13:15.325Z,81.13
2022-11-29T04:17:13.752Z,62.37
2022-11-29T04:20:20.118Z,60.33
2022-11-29T04:23:29.478Z,61.43
2022-11-29T04:26:48.174Z,63.03
2022-11-29T04:30:04.937Z,62.93
2022-11-29T04:33:28.351Z,70.03
2022-11-29T04:37:21.578Z,65.03
2022-11-29T04:40:22.095Z,61.67
2022-11-29T04:43:24.715Z,68.67
2022-11-29T04:46:44.050Z,76.90
2022-11-29T04:49:37.460Z,69.20
2022-11-29T04:52:46.798Z,61.90
2022-11-29T04:56:21.545Z,59.43
2022-11-29T04:59:35.047Z,63.80
2022-11-29T05:02:51.531Z,70.87
2022-11-29T05:06:01.678Z,75.63
2022-11-29T05:09:42.919Z,61.87
2022-11-29T05:12:47.823Z,65.20
2022-11-29T05:16:33.520Z,71.03
2022-11-29T05:19:53.451Z,67.37
2022-11-29T05:22:50.479Z,70.47
2022-11-29T05:26:05.803Z,78.63
2022-11-29T05:29:05.299Z,73.20
2022-11-29T05:32:32.710Z,75.90
2022-11-29T05:35:41.039Z,90.90
2022-11-29T05:38:43.813Z,121.07
2022-11-29T05:41:50.950Z,119.87
2022-11-29T05:44:39.078Z,169.60
2022-11-29T05:47:14.497Z,145.43
2022-11-29T05:50:21.531Z,217.67
2022-11-29T05:53:46.917Z,256.67
2022-11-29T05:56:55.431Z,273.73
2022-11-29T05:59:31.248Z,336.60
2022-11-29T06:02:28.202Z,242.17
2022-11-29T06:05:41.321Z,210.03
2022-11-29T06:08:44.802Z,171.23
2022-11-29T06:11:32.333Z,179.07
2022-11-29T06:15:17.275Z,173.27
2022-11-29T06:18:37.486Z,155.47
2022-11-29T06:21:44.124Z,131.00
2022-11-29T06:24:47.873Z,149.57
2022-11-29T06:27:57.862Z,141.10
2022-11-29T06:31:25.543Z,123.97
2022-11-29T06:34:25.023Z,161.17
2022-11-29T06:37:21.743Z,125.50
2022-11-29T06:39:50.062Z,143.73
2022-11-29T06:42:18.028Z,131.40
2022-11-29T06:44:46.874Z,159.43
2022-11-29T06:47:44.056Z,129.20
2022-11-29T06:51:11.136Z,143.00
2022-11-29T06:54:12.733Z,112.60
2022-11-29T06:57:24.911Z,120.17
2022-11-29T07:00:18.264Z,149.20
2022-11-29T07:03:16.949Z,113.03
2022-11-29T07:05:46.634Z,171.43
2022-11-29T07:08:23.142Z,126.87
2022-11-29T07:10:55.738Z,111.60
2022-11-29T07:13:24.434Z,119.93
2022-11-29T07:16:41.841Z,123.73
2022-11-29T07:20:15.586Z,138.83
2022-11-29T07:23:31.743Z,118.47
2022-11-29T07:26:55.211Z,112.77
2022-11-29T07:29:51.114Z,120.80
2022-11-29T07:33:13.461Z,144.67
2022-11-29T07:36:19.453Z,117.40
2022-11-29T07:40:10.323Z,124.30
2022-11-29T07:43:32.515Z,177.37
2022-11-29T07:46:01.193Z,135.47
2022-11-29T07:48:29.156Z,115.83
2022-11-29T07:50:58.007Z,80.70
2022-11-29T07:53:25.701Z,126.53
2022-11-29T07:55:53.622Z,95.77
2022-11-29T07:58:21.323Z,91.07
2022-11-29T08:00:49.007Z,113.23
2022-11-29T08:03:16.690Z,93.73
2022-11-29T08:05:48.291Z,77.03
2022-11-29T08:08:16.255Z,92.40
2022-11-29T08:10:45.351Z,90.33
2022-11-29T08:13:13.590Z,102.57
2022-11-29T08:15:47.297Z,106.03
2022-11-29T08:18:16.794Z,116.63
2022-11-29T08:20:46.425Z,115.97
2022-11-29T08:23:16.227Z,117.97
2022-11-29T08:25:43.915Z,104.20
2022-11-29T08:28:12.233Z,96.47
2022-11-29T08:30:39.869Z,112.87
2022-11-29T08:33:07.560Z,98.50
2022-11-29T08:35:36.105Z,97.70
2022-11-29T08:38:05.059Z,95.27
2022-11-29T08:40:32.701Z,92.70
2022-11-29T08:43:00.369Z,96.30
2022-11-29T08:45:28.256Z,105.43
2022-11-29T08:47:55.897Z,86.67
2022-11-29T08:50:23.569Z,84.00
2022-11-29T08:53:10.126Z,86.60
2022-11-29T08:55:46.721Z,86.17
2022-11-29T08:58:16.590Z,84.07
2022-11-29T09:00:47.088Z,95.30
2022-11-29T09:03:34.038Z,88.40
2022-11-29T09:06:16.035Z,81.93
2022-11-29T09:08:45.556Z,89.57
2022-11-29T09:11:22.264Z,75.60
2022-11-29T09:13:59.819Z,69.40
2022-11-29T09:16:34.568Z,77.40
2022-11-29T09:19:04.551Z,73.23
2022-11-29T09:21:36.833Z,74.50
2022-11-29T09:24:06.941Z,68.80
2022-11-29T09:26:38.181Z,66.77
2022-11-29T09:29:08.162Z,76.37
2022-11-29T09:31:36.209Z,89.43
2022-11-29T09:34:04.113Z,59.73
2022-11-29T09:36:32.542Z,69.47
2022-11-29T09:39:02.965Z,67.87
2022-11-29T09:42:01.147Z,50.93
2022-11-29T09:45:14.597Z,50.43
2022-11-29T09:48:39.617Z,55.57
2022-11-29T09:51:31.545Z,63.83
2022-11-29T09:54:57.759Z,57.73
2022-11-29T09:57:28.071Z,63.77
2022-11-29T10:00:06.725Z,56.10
2022-11-29T10:03:08.639Z,61.77
2022-11-29T10:05:50.497Z,69.53
2022-11-29T10:08:50.093Z,58.03
2022-11-29T10:11:55.611Z,64.43
2022-11-29T10:14:52.535Z,59.27
2022-11-29T10:17:56.370Z,74.87
2022-11-29T10:20:39.198Z,67.50
2022-11-29T10:23:43.989Z,70.97
2022-11-29T10:26:13.997Z,76.80
2022-11-29T10:28:48.782Z,69.80
2022-11-29T10:31:42.872Z,60.20
2022-11-29T10:34:25.704Z,73.97
2022-11-29T10:37:02.429Z,74.13
2022-11-29T10:39:53.158Z,79.00
2022-11-29T10:42:46.701Z,75.87
2022-11-29T10:45:35.199Z,58.33
2022-11-29T10:48:14.464Z,70.90
2022-11-29T10:50:48.744Z,62.70
2022-11-29T10:53:36.150Z,87.23
2022-11-29T10:56:24.193Z,67.93
2022-11-29T10:59:09.106Z,73.47
2022-11-29T11:01:43.900Z,70.23
2022-11-29T11:04:46.778Z,69.70
2022-11-29T11:07:36.564Z,71.13
2022-11-29T11:10:28.753Z,77.50
2022-11-29T11:13:29.480Z,107.13
2022-11-29T11:16:18.608Z,80.87
2022-11-29T11:19:30.148Z,72.03
2022-11-29T11:22:03.893Z,79.67
2022-11-29T11:24:44.309Z,81.43
2022-11-29T11:27:12.319Z,81.37
2022-11-29T11:29:45.414Z,74.93
2022-11-29T11:32:20.361Z,96.40
2022-11-29T11:35:02.145Z,85.33
2022-11-29T11:37:35.874Z,65.23
2022-11-29T11:40:31.426Z,75.67
2022-11-29T11:43:03.288Z,82.40
2022-11-29T11:45:39.586Z,79.37
2022-11-29T11:48:19.766Z,85.67
2022-11-29T11:51:02.228Z,78.27
2022-11-29T11:53:38.438Z,89.20
2022-11-29T11:56:14.971Z,79.13
2022-11-29T11:58:58.080Z,76.20
2022-11-29T12:01:39.203Z,90.10
2022-11-29T12:04:35.899Z,95.13
2022-11-29T12:08:06.948Z,77.30
2022-11-29T12:10:34.969Z,96.50
2022-11-29T12:13:05.085Z,95.63
2022-11-29T12:15:41.048Z,89.93
2022-11-29T12:18:48.579Z,99.90
2022-11-29T12:21:39.096Z,82.90
2022-11-29T12:24:53.598Z,86.90
2022-11-29T12:27:22.249Z,80.17
2022-11-29T12:29:51.136Z,86.30
2022-11-29T12:33:22.913Z,94.77
2022-11-29T12:36:32.497Z,92.37
2022-11-29T12:39:39.022Z,83.67
2022-11-29T12:42:57.729Z,78.60
2022-11-29T12:46:03.914Z,92.47
2022-11-29T12:49:14.541Z,87.93
2022-11-29T12:52:25.592Z,84.93
2022-11-29T12:55:23.672Z,83.47
2022-11-29T12:57:54.317Z,75.53
2022-11-29T13:00:23.547Z,81.47
2022-11-29T13:04:00.086Z,75.33
2022-11-29T13:07:17.383Z,89.17
2022-11-29T13:11:00.496Z,72.30
2022-11-29T13:14:41.062Z,74.87
2022-11-29T13:17:58.975Z,80.30
2022-11-29T13:21:21.521Z,82.40
2022-11-29T13:24:12.219Z,71.03
2022-11-29T13:26:43.310Z,71.13
2022-11-29T13:29:18.670Z,66.23
2022-11-29T13:31:49.113Z,64.27
2022-11-29T13:34:42.767Z,63.67
2022-11-29T13:37:39.156Z,59.57
2022-11-29T13:40:37.617Z,63.00
2022-11-29T13:43:35.192Z,58.20
2022-11-29T13:46:28.953Z,51.60
2022-11-29T13:48:57.398Z,59.93
2022-11-29T13:51:38.246Z,54.60
2022-11-29T13:54:35.190Z,49.40
2022-11-29T13:57:10.428Z,53.73
2022-11-29T13:59:47.095Z,53.80
2022-11-29T14:02:41.800Z,54.43
2022-11-29T14:05:29.697Z,61.80
2022-11-29T14:09:17.855Z,49.13
2022-11-29T14:11:48.914Z,50.70
2022-11-29T14:14:31.883Z,46.27
2022-11-29T14:17:26.993Z,50.40
2022-11-29T14:20:23.282Z,49.30
2022-11-29T14:23:05.917Z,50.70
2022-11-29T14:25:52.108Z,58.60
2022-11-29T14:28:41.204Z,57.17
2022-11-29T14:31:10.563Z,57.13
2022-11-29T14:34:16.625Z,61.27
2022-11-29T14:37:14.566Z,57.43
2022-11-29T14:39:52.946Z,68.17
2022-11-29T14:42:26.423Z,63.27
2022-11-29T14:45:04.888Z,72.90
2022-11-29T14:47:47.512Z,61.43
2022-11-29T14:50:40.044Z,70.00
2022-11-29T14:53:36.084Z,69.37
2022-11-29T14:56:42.508Z,65.93
2022-11-29T14:59:52.994Z,48.47
2022-11-29T15:02:53.323Z,80.37
2022-11-29T15:05:46.487Z,56.40
2022-11-29T15:09:13.094Z,44.23
2022-11-29T15:12:09.164Z,67.33
2022-11-29T15:15:10.248Z,52.00
2022-11-29T15:18:30.351Z,53.70
2022-11-29T15:21:54.181Z,47.77
2022-11-29T15:24:28.029Z,43.00
2022-11-29T15:27:04.346Z,42.37
2022-11-29T15:29:32.448Z,31.03
2022-11-29T15:32:06.401Z,40.70
2022-11-29T15:34:52.282Z,44.33
2022-11-29T15:37:44.701Z,43.60
2022-11-29T15:40:26.400Z,52.83
2022-11-29T15:43:26.653Z,48.27
2022-11-29T15:45:58.291Z,47.80
2022-11-29T15:48:32.609Z,49.87
2022-11-29T15:51:22.275Z,58.07
2022-11-29T15:54:18.699Z,54.70
2022-11-29T15:57:14.638Z,49.50
2022-11-29T15:59:58.196Z,60.90
2022-11-29T16:02:46.398Z,51.67
2022-11-29T16:05:38.910Z,53.27
2022-11-29T16:08:21.005Z,50.67
2022-11-29T16:10:53.204Z,52.00
2022-11-29T16:13:43.156Z,52.20
2022-11-29T16:16:35.551Z,53.50
2022-11-29T16:19:33.054Z,60.07
2022-11-29T16:22:24.115Z,71.03
2022-11-29T16:25:16.656Z,55.97
2022-11-29T16:27:45.994Z,59.70
2022-11-29T16:30:31.073Z,58.77
2022-11-29T16:33:03.478Z,67.63
2022-11-29T16:35:36.630Z,70.10
2022-11-29T16:38:05.754Z,61.90
2022-11-29T16:40:35.664Z,66.97
2022-11-29T16:43:41.546Z,64.23
2022-11-29T16:46:38.816Z,71.57
2022-11-29T16:49:36.529Z,62.80
2022-11-29T16:52:27.968Z,58.10
2022-11-29T16:54:55.945Z,69.47
2022-11-29T16:57:25.234Z,76.53
2022-11-29T16:59:52.997Z,81.60
2022-11-29T17:02:21.455Z,82.43
2022-11-29T17:04:51.771Z,80.50
2022-11-29T17:07:35.651Z,78.30
2022-11-29T17:10:09.382Z,66.57
2022-11-29T17:12:38.980Z,59.47
2022-11-29T17:15:09.810Z,67.07
2022-11-29T17:17:37.468Z,71.60
2022-11-29T17:20:08.262Z,86.70
2022-11-29T17:22:36.141Z,77.63
2022-11-29T17:25:04.605Z,89.07
2022-11-29T17:27:32.175Z,81.17
2022-11-29T17:29:59.803Z,76.07
2022-11-29T17:32:27.441Z,78.13
2022-11-29T17:34:55.200Z,80.57
2022-11-29T17:37:22.730Z,86.03
2022-11-29T17:39:50.370Z,75.83
2022-11-29T17:42:17.984Z,82.63
2022-11-29T17:44:45.515Z,99.97
2022-11-29T17:47:13.273Z,91.60
2022-11-29T17:49:41.000Z,96.20
2022-11-29T17:52:08.652Z,88.53
2022-11-29T17:54:36.219Z,88.10
2022-11-29T17:57:04.848Z,77.67
2022-11-29T17:59:32.358Z,100.10
2022-11-29T18:02:02.080Z,112.87
2022-11-29T18:04:29.815Z,110.53
2022-11-29T18:06:57.448Z,112.80
2022-11-29T18:09:25.073Z,133.93
2022-11-29T18:11:52.708Z,129.40
2022-11-29T18:14:24.158Z,150.60
2022-11-29T18:16:52.627Z,128.33
2022-11-29T18:19:23.717Z,142.57
2022-11-29T18:21:52.374Z,129.77
2022-11-29T18:24:20.346Z,152.83
2022-11-29T18:26:48.166Z,146.97
2022-11-29T18:29:15.949Z,133.67
2022-11-29T18:31:46.399Z,153.83
2022-11-29T18:34:15.643Z,104.47
2022-11-29T18:36:48.924Z,129.57
2022-11-29T18:39:20.433Z,118.23
2022-11-29T18:41:51.032Z,103.30
2022-11-29T18:44:21.944Z,107.00
2022-11-29T18:46:50.037Z,111.97
2022-11-29T18:49:19.150Z,115.17
2022-11-29T18:51:49.958Z,119.30
2022-11-29T18:54:19.733Z,101.53
2022-11-29T18:56:50.788Z,97.33
2022-11-29T18:59:18.675Z,107.87
2022-11-29T19:01:48.800Z,104.40
2022-11-29T19:04:21.174Z,105.60
2022-11-29T19:06:49.608Z,101.60
2022-11-29T19:09:22.189Z,91.53
2022-11-29T19:11:51.060Z,91.33
2022-11-29T19:14:19.797Z,97.47
2022-11-29T19:16:50.345Z,87.77
2022-11-29T19:19:19.079Z,83.87
2022-11-29T19:21:47.562Z,85.57
2022-11-29T19:24:18.861Z,89.50
2022-11-29T19:26:49.914Z,78.00
2022-11-29T19:29:18.023Z,92.03
2022-11-29T19:31:45.895Z,79.20
2022-11-29T19:34:13.886Z,93.10
2022-11-29T19:36:43.885Z,82.77
2022-11-29T19:39:18.280Z,97.70
2022-11-29T19:41:48.090Z,74.53
2022-11-29T19:44:15.875Z,80.97
2022-11-29T19:46:48.741Z,99.77
2022-11-29T19:49:16.770Z,83.53
2022-11-29T19:51:44.934Z,82.80
2022-11-29T19:54:13.185Z,86.53
2022-11-29T19:56:43.999Z,108.53
2022-11-29T19:59:12.377Z,95.63
2022-11-29T20:01:42.262Z,95.60
2022-11-29T20:04:14.351Z,105.67
2022-11-29T20:06:44.590Z,88.33
2022-11-29T20:09:15.179Z,91.03
2022-11-29T20:11:45.431Z,84.43
2022-11-29T20:14:14.803Z,99.33
2022-11-29T20:16:43.830Z,113.40
2022-11-29T20:19:16.784Z,109.20
2022-11-29T20:21:49.771Z,115.80
2022-11-29T20:24:19.657Z,100.23
2022-11-29T20:26:49.895Z,102.60
2022-11-29T20:29:19.367Z,96.77
2022-11-29T20:31:50.705Z,102.17
2022-11-29T20:34:20.846Z,101.37
2022-11-29T20:38:09.270Z,103.43
2022-11-29T20:41:14.958Z,100.20
2022-11-29T20:43:58.128Z,116.87
2022-11-29T20:46:26.517Z,110.07
2022-11-29T20:48:59.417Z,97.73
2022-11-29T20:51:52.021Z,91.70
2022-11-29T20:54:20.607Z,103.50
2022-11-29T20:56:48.231Z,115.43
2022-11-29T20:59:15.886Z,100.77
2022-11-29T21:01:43.675Z,126.23
2022-11-29T21:04:11.412Z,112.10
2022-11-29T21:06:39.919Z,109.63
2022-11-29T21:09:08.942Z,124.60
2022-11-29T21:11:37.256Z,116.50
2022-11-29T21:14:08.281Z,128.70
2022-11-29T21:16:36.521Z,122.13
2022-11-29T21:19:05.729Z,132.77
2022-11-29T21:22:20.009Z,140.23
2022-11-29T21:25:36.670Z,130.80
2022-11-29T21:28:16.176Z,128.27
2022-11-29T21:30:45.164Z,129.03
2022-11-29T21:33:13.340Z,143.07
2022-11-29T21:35:41.245Z,137.63
2022-11-29T21:38:22.343Z,136.33
2022-11-29T21:40:50.396Z,131.97
2022-11-29T21:43:18.217Z,148.33
2022-11-29T21:45:48.663Z,174.43
2022-11-29T21:48:34.652Z,172.83
2022-11-29T21:51:10.296Z,168.10
2022-11-29T21:53:41.502Z,145.80
2022-11-29T21:56:14.872Z,163.43
2022-11-29T21:58:43.339Z,130.33
2022-11-29T22:01:19.441Z,170.03
2022-11-29T22:03:48.328Z,175.27
2022-11-29T22:06:20.954Z,161.20
2022-11-29T22:08:49.262Z,149.73
2022-11-29T22:11:34.205Z,128.47
2022-11-29T22:14:14.872Z,178.03
2022-11-29T22:17:11.764Z,201.87
2022-11-29T22:19:39.918Z,219.60
2022-11-29T22:22:10.898Z,212.17
2022-11-29T22:24:42.792Z,138.47
2022-11-29T22:27:10.551Z,231.17
2022-11-29T22:29:38.264Z,199.50
2022-11-29T22:32:06.791Z,259.37
2022-11-29T22:34:34.397Z,255.80
2022-11-29T22:37:02.708Z,160.73
2022-11-29T22:39:30.884Z,168.03
2022-11-29T22:41:59.495Z,170.47
2022-11-29T22:44:27.088Z,157.50
2022-11-29T22:46:54.771Z,194.80
2022-11-29T22:49:22.446Z,187.43
2022-11-29T22:51:50.087Z,197.70
2022-11-29T22:54:18.065Z,236.07
2022-11-29T22:56:47.936Z,174.33
2022-11-29T22:59:15.920Z,134.63
2022-11-29T23:01:47.732Z,143.23
2022-11-29T23:04:15.862Z,200.43
2022-11-29T23:06:46.421Z,209.50
2022-11-29T23:09:22.468Z,187.70
2022-11-29T23:11:56.342Z,164.73
2022-11-29T23:14:24.946Z,212.60
2022-11-29T23:16:53.049Z,176.70
2022-11-29T23:19:21.397Z,189.70
2022-11-29T23:21:50.044Z,178.13
2022-11-29T23:24:17.847Z,263.30
2022-11-29T23:26:48.275Z,195.73
2022-11-29T23:29:20.029Z,207.20
2022-11-29T23:31:49.725Z,254.87
2022-11-29T23:34:17.804Z,184.67
2022-11-29T23:36:49.771Z,182.17
2022-11-29T23:39:20.712Z,205.37
2022-11-29T23:41:48.320Z,166.00
2022-11-29T23:44:16.046Z,308.27
2022-11-29T23:46:43.595Z,270.67
2022-11-29T23:49:11.179Z,217.07
2022-11-29T23:51:39.325Z,218.37
2022-11-29T23:54:07.022Z,293.30
2022-11-29T23:56:35.656Z,256.30
2022-11-29T23:59:03.866Z,354.17
